createdAt,value
2019-04-20T00:00:09.084Z,47.64
2019-04-20T00:02:37.958Z,48.03
2019-04-20T00:05:09.389Z,48.62
2019-04-20T00:07:40.098Z,49.12
2019-04-20T00:10:15.553Z,49.78
2019-04-20T00:13:01.095Z,50.75
2019-04-20T00:15:15.738Z,50.24
2019-04-20T00:17:54.252Z,50.01
2019-04-20T00:20:24.171Z,49.63
2019-04-20T00:22:59.791Z,48.98
2019-04-20T00:26:04.477Z,49.57
2019-04-20T00:28:45.995Z,50.52
2019-04-20T00:31:17.807Z,51.24
2019-04-20T00:33:42.760Z,50.82
2019-04-20T00:36:05.393Z,51.32
2019-04-20T00:38:45.539Z,52.18
2019-04-20T00:41:12.526Z,52.16
2019-04-20T00:43:42.537Z,52.18
2019-04-20T00:46:23.117Z,51.54
2019-04-20T00:48:54.011Z,51.20
2019-04-20T00:51:35.147Z,51.05
2019-04-20T00:53:55.246Z,51.03
2019-04-20T00:56:24.486Z,51.28
2019-04-20T00:59:08.329Z,51.20
2019-04-20T01:01:47.656Z,51.66
2019-04-20T01:04:20.485Z,51.79
2019-04-20T01:07:06.221Z,52.11
2019-04-20T01:09:43.386Z,52.27
2019-04-20T01:12:22.471Z,52.16
2019-04-20T01:14:55.131Z,51.43
2019-04-20T01:17:20.303Z,52.00
2019-04-20T01:19:54.140Z,52.44
2019-04-20T01:22:27.323Z,52.13
2019-04-20T01:25:09.751Z,52.07
2019-04-20T01:27:51.576Z,51.45
2019-04-20T01:30:17.432Z,51.30
2019-04-20T01:32:55.133Z,51.46
2019-04-20T01:35:31.826Z,51.77
2019-04-20T01:38:07.318Z,52.35
2019-04-20T01:40:19.089Z,53.17
2019-04-20T01:42:51.063Z,52.31
2019-04-20T01:45:27.937Z,52.44
2019-04-20T01:47:57.789Z,52.81
2019-04-20T01:50:30.055Z,53.30
2019-04-20T01:53:11.536Z,52.37
2019-04-20T01:55:53.113Z,52.63
2019-04-20T01:58:52.130Z,52.75
2019-04-20T02:00:55.851Z,53.05
2019-04-20T02:03:38.597Z,53.63
2019-04-20T02:06:16.734Z,53.70
2019-04-20T02:08:46.195Z,53.77
2019-04-20T02:11:24.148Z,53.74
2019-04-20T02:13:56.660Z,54.21
2019-04-20T02:16:31.784Z,53.92
2019-04-20T02:19:15.533Z,54.18
2019-04-20T02:21:55.687Z,54.18
2019-04-20T02:24:13.144Z,53.87
2019-04-20T02:26:45.096Z,53.97
2019-04-20T02:29:39.840Z,54.81
2019-04-20T02:32:23.326Z,54.17
2019-04-20T02:35:07.231Z,54.63
2019-04-20T02:40:45.199Z,54.83
2019-04-20T02:45:40.428Z,56.91
2019-04-20T02:48:13.411Z,56.96
2019-04-20T02:50:59.530Z,57.23
2019-04-20T02:53:30.292Z,57.23
2019-04-20T02:55:58.565Z,56.80
2019-04-20T02:58:23.574Z,56.49
2019-04-20T03:00:57.150Z,56.24
2019-04-20T03:03:14.336Z,56.70
2019-04-20T03:05:45.445Z,56.17
2019-04-20T03:08:22.262Z,56.19
2019-04-20T03:11:11.710Z,55.73
2019-04-20T03:13:36.695Z,55.71
2019-04-20T03:16:08.695Z,55.64
2019-04-20T03:18:39.849Z,54.90
2019-04-20T03:21:21.068Z,54.30
2019-04-20T03:23:50.015Z,53.55
2019-04-20T03:26:21.406Z,53.52
2019-04-20T03:29:02.576Z,52.86
2019-04-20T03:32:28.874Z,52.75
2019-04-20T03:35:00.547Z,51.37
2019-04-20T03:37:17.192Z,49.94
2019-04-20T03:39:40.528Z,49.88
2019-04-20T03:41:58.712Z,50.29
2019-04-20T03:44:32.919Z,49.59
2019-04-20T03:47:08.038Z,48.53
2019-04-20T03:50:01.002Z,48.81
2019-04-20T03:52:32.845Z,48.67
2019-04-20T03:55:07.278Z,48.74
2019-04-20T03:57:49.812Z,47.86
2019-04-20T04:00:26.448Z,46.94
2019-04-20T04:03:16.573Z,43.10
2019-04-20T04:05:37.034Z,39.24
2019-04-20T04:08:03.167Z,37.28
2019-04-20T04:10:34.039Z,35.05
2019-04-20T04:13:14.939Z,33.48
2019-04-20T04:15:55.597Z,32.93
2019-04-20T04:18:29.742Z,32.57
2019-04-20T04:21:01.963Z,32.86
2019-04-20T04:23:44.524Z,33.32
2019-04-20T04:26:17.490Z,32.27
2019-04-20T04:28:53.835Z,31.33
2019-04-20T04:31:35.039Z,32.65
2019-04-20T04:34:17.689Z,31.51
2019-04-20T04:36:40.593Z,31.67
2019-04-20T04:39:15.476Z,30.03
2019-04-20T04:41:58.213Z,29.19
2019-04-20T04:44:18.012Z,28.53
2019-04-20T04:46:44.600Z,27.48
2019-04-20T04:49:16.506Z,28.40
2019-04-20T04:51:53.520Z,28.13
2019-04-20T04:54:28.817Z,27.65
2019-04-20T04:56:54.608Z,28.14
2019-04-20T04:59:29.672Z,27.69
2019-04-20T05:02:03.293Z,27.52
2019-04-20T05:04:58.425Z,26.27
2019-04-20T05:07:24.453Z,26.21
2019-04-20T05:09:44.385Z,26.72
2019-04-20T05:12:20.338Z,25.92
2019-04-20T05:14:58.078Z,27.41
2019-04-20T05:17:39.421Z,25.34
2019-04-20T05:20:13.387Z,25.04
2019-04-20T05:22:51.001Z,26.29
2019-04-20T05:25:36.656Z,26.07
2019-04-20T05:28:20.797Z,24.69
2019-04-20T05:30:52.548Z,24.15
2019-04-20T05:33:31.493Z,24.54
2019-04-20T05:36:15.745Z,25.29
2019-04-20T05:38:46.999Z,24.69
2019-04-20T05:41:20.091Z,24.06
2019-04-20T05:43:53.410Z,26.05
2019-04-20T05:46:35.343Z,25.38
2019-04-20T05:49:13.474Z,25.04
2019-04-20T05:51:39.682Z,25.99
2019-04-20T05:54:13.579Z,25.54
2019-04-20T05:56:51.274Z,25.14
2019-04-20T05:59:23.851Z,26.18
2019-04-20T06:01:58.887Z,27.63
2019-04-20T06:04:41.313Z,28.87
2019-04-20T06:07:08.287Z,28.68
2019-04-20T06:09:40.945Z,28.34
2019-04-20T06:12:31.809Z,26.18
2019-04-20T06:17:52.717Z,26.38
2019-04-20T06:20:33.952Z,27.45
2019-04-20T06:23:15.936Z,27.62
2019-04-20T06:25:52.975Z,28.33
2019-04-20T06:28:12.825Z,28.53
2019-04-20T06:30:50.846Z,28.89
2019-04-20T06:36:38.600Z,28.73
2019-04-20T06:39:17.204Z,28.72
2019-04-20T06:42:05.015Z,28.05
2019-04-20T06:44:24.678Z,29.03
2019-04-20T06:46:59.129Z,28.78
2019-04-20T06:52:00.414Z,28.61
2019-04-20T06:54:39.464Z,28.74
2019-04-20T06:57:22.552Z,28.29
2019-04-20T06:59:47.667Z,28.17
2019-04-20T07:02:22.231Z,28.48
2019-04-20T07:07:26.614Z,28.22
2019-04-20T07:12:27.324Z,28.23
2019-04-20T07:14:55.277Z,27.55
2019-04-20T07:17:49.103Z,26.68
2019-04-20T07:20:15.491Z,27.22
2019-04-20T07:23:14.517Z,28.70
2019-04-20T07:25:38.769Z,27.46
2019-04-20T07:28:05.881Z,27.52
2019-04-20T07:30:41.846Z,29.34
2019-04-20T07:33:20.023Z,29.66
2019-04-20T07:35:49.218Z,29.24
2019-04-20T07:40:50.377Z,29.36
2019-04-20T07:43:25.577Z,28.84
2019-04-20T07:45:55.751Z,28.92
2019-04-20T07:48:26.431Z,28.61
2019-04-20T07:50:55.533Z,28.47
2019-04-20T07:53:29.399Z,28.42
2019-04-20T07:56:12.597Z,28.10
2019-04-20T07:59:31.480Z,28.15
2019-04-20T08:02:19.180Z,27.53
2019-04-20T08:04:55.080Z,28.04
2019-04-20T08:07:17.521Z,27.53
2019-04-20T08:09:57.421Z,27.76
2019-04-20T08:12:58.381Z,26.41
2019-04-20T08:15:34.045Z,25.94
2019-04-20T08:17:56.394Z,26.36
2019-04-20T08:20:29.926Z,26.26
2019-04-20T08:23:00.120Z,25.59
2019-04-20T08:25:23.773Z,25.40
2019-04-20T08:28:06.479Z,24.96
2019-04-20T08:31:00.912Z,25.59
2019-04-20T08:33:45.178Z,25.50
2019-04-20T08:36:18.156Z,26.21
2019-04-20T08:39:12.717Z,25.70
2019-04-20T08:41:48.622Z,26.26
2019-04-20T08:44:42.723Z,26.69
2019-04-20T08:47:05.164Z,26.50
2019-04-20T08:49:29.666Z,26.73
2019-04-20T08:54:26.409Z,24.90
2019-04-20T08:56:51.721Z,25.25
2019-04-20T08:59:19.197Z,25.51
2019-04-20T09:01:51.077Z,26.08
2019-04-20T09:04:36.045Z,26.60
2019-04-20T09:07:05.596Z,26.06
2019-04-20T09:09:52.549Z,25.06
2019-04-20T09:12:26.757Z,26.11
2019-04-20T09:14:44.532Z,26.30
2019-04-20T09:17:27.264Z,26.14
2019-04-20T09:20:01.486Z,26.16
2019-04-20T09:22:49.457Z,26.24
2019-04-20T09:25:57.718Z,25.82
2019-04-20T09:28:11.772Z,25.91
2019-04-20T09:30:51.950Z,25.80
2019-04-20T09:33:47.037Z,25.32
2019-04-20T09:36:17.875Z,25.14
2019-04-20T09:39:08.573Z,25.32
2019-04-20T09:41:58.114Z,24.95
2019-04-20T09:44:04.641Z,25.16
2019-04-20T09:46:44.183Z,24.50
2019-04-20T09:49:20.136Z,24.65
2019-04-20T09:52:00.187Z,24.96
2019-04-20T09:54:35.862Z,24.88
2019-04-20T09:57:09.163Z,25.07
2019-04-20T09:59:52.868Z,25.89
2019-04-20T10:02:13.715Z,25.07
2019-04-20T10:04:39.925Z,25.59
2019-04-20T10:07:14.510Z,25.52
2019-04-20T10:09:46.912Z,25.15
2019-04-20T10:12:15.734Z,25.03
2019-04-20T10:14:46.849Z,25.48
2019-04-20T10:17:18.118Z,25.90
2019-04-20T10:19:51.380Z,24.84
2019-04-20T10:22:29.017Z,24.03
2019-04-20T10:25:02.644Z,24.69
2019-04-20T10:27:41.923Z,24.84
2019-04-20T10:30:14.603Z,24.76
2019-04-20T10:32:50.912Z,25.17
2019-04-20T10:35:23.876Z,25.56
2019-04-20T10:38:03.346Z,24.54
2019-04-20T10:40:48.683Z,25.58
2019-04-20T10:43:10.221Z,25.61
2019-04-20T10:45:41.423Z,25.11
2019-04-20T10:48:13.145Z,24.88
2019-04-20T10:50:47.204Z,24.89
2019-04-20T10:53:19.696Z,25.14
2019-04-20T10:55:55.704Z,24.41
2019-04-20T10:58:27.563Z,24.19
2019-04-20T11:01:05.783Z,25.00
2019-04-20T11:03:44.831Z,24.08
2019-04-20T11:06:34.443Z,24.37
2019-04-20T11:09:11.873Z,24.45
2019-04-20T11:11:48.462Z,24.55
2019-04-20T11:14:26.373Z,24.00
2019-04-20T11:16:54.141Z,23.48
2019-04-20T11:19:25.366Z,23.21
2019-04-20T11:22:00.377Z,22.65
2019-04-20T11:24:38.990Z,23.14
2019-04-20T11:27:12.486Z,23.62
2019-04-20T11:29:44.487Z,23.25
2019-04-20T11:32:17.908Z,24.14
2019-04-20T11:34:51.234Z,23.87
2019-04-20T11:37:22.148Z,23.74
2019-04-20T11:39:55.235Z,24.06
2019-04-20T11:42:25.945Z,24.40
2019-04-20T11:44:58.722Z,23.70
2019-04-20T11:47:29.676Z,23.44
2019-04-20T11:50:01.823Z,23.14
2019-04-20T11:52:39.909Z,23.41
2019-04-20T11:55:10.517Z,23.68
2019-04-20T11:57:43.027Z,24.02
2019-04-20T12:00:29.888Z,23.75
2019-04-20T12:03:24.795Z,23.96
2019-04-20T12:05:53.812Z,24.68
2019-04-20T12:08:23.375Z,24.56
2019-04-20T12:10:59.513Z,24.18
2019-04-20T12:13:31.030Z,24.09
2019-04-20T12:16:05.581Z,24.14
2019-04-20T12:18:38.256Z,24.53
2019-04-20T12:21:14.791Z,24.55
2019-04-20T12:23:46.406Z,23.85
2019-04-20T12:26:18.805Z,23.46
2019-04-20T12:28:52.212Z,23.48
2019-04-20T12:31:27.636Z,24.02
2019-04-20T12:33:58.649Z,24.51
2019-04-20T12:36:30.234Z,23.50
2019-04-20T12:39:04.075Z,23.22
2019-04-20T12:41:45.339Z,23.40
2019-04-20T12:44:12.231Z,23.61
2019-04-20T12:46:47.814Z,23.94
2019-04-20T12:49:23.479Z,23.90
2019-04-20T12:52:00.237Z,23.79
2019-04-20T12:54:29.270Z,24.12
2019-04-20T12:57:00.505Z,23.78
2019-04-20T12:59:42.255Z,23.73
2019-04-20T13:02:13.847Z,23.82
2019-04-20T13:04:45.781Z,23.65
2019-04-20T13:07:17.660Z,23.78
2019-04-20T13:09:54.802Z,23.50
2019-04-20T13:12:34.258Z,23.09
2019-04-20T13:15:26.591Z,23.27
2019-04-20T13:18:01.395Z,23.21
2019-04-20T13:20:37.108Z,22.98
2019-04-20T13:23:17.219Z,23.01
2019-04-20T13:25:48.861Z,22.99
2019-04-20T13:28:23.170Z,23.30
2019-04-20T13:30:57.844Z,23.54
2019-04-20T13:33:29.544Z,23.69
2019-04-20T13:36:04.062Z,24.24
2019-04-20T13:38:38.189Z,23.32
2019-04-20T13:41:09.396Z,23.45
2019-04-20T13:43:41.612Z,23.21
2019-04-20T13:46:25.034Z,23.10
2019-04-20T13:48:58.853Z,22.71
2019-04-20T13:51:32.881Z,22.65
2019-04-20T13:54:14.985Z,22.25
2019-04-20T13:56:48.026Z,22.76
2019-04-20T13:59:32.539Z,22.58
2019-04-20T14:02:10.877Z,22.71
2019-04-20T14:04:48.722Z,22.96
2019-04-20T14:07:20.280Z,23.14
2019-04-20T14:09:53.477Z,23.48
2019-04-20T14:12:35.397Z,23.84
2019-04-20T14:15:02.829Z,23.60
2019-04-20T14:17:37.218Z,23.77
2019-04-20T14:20:15.779Z,23.63
2019-04-20T14:22:47.259Z,23.32
2019-04-20T14:25:22.887Z,22.82
2019-04-20T14:28:05.204Z,23.25
2019-04-20T14:30:37.243Z,22.56
2019-04-20T14:33:12.898Z,22.86
2019-04-20T14:35:48.322Z,23.21
2019-04-20T14:38:22.286Z,23.35
2019-04-20T14:41:00.110Z,23.53
2019-04-20T14:43:38.105Z,23.71
2019-04-20T14:46:10.918Z,23.82
2019-04-20T14:48:46.879Z,24.14
2019-04-20T14:51:27.831Z,24.41
2019-04-20T14:54:05.933Z,23.81
2019-04-20T14:56:47.620Z,23.80
2019-04-20T14:59:27.476Z,23.88
2019-04-20T15:02:02.822Z,24.10
2019-04-20T15:04:34.711Z,24.32
2019-04-20T15:07:06.695Z,24.39
2019-04-20T15:09:42.549Z,24.83
2019-04-20T15:12:15.004Z,24.59
2019-04-20T15:14:50.397Z,24.37
2019-04-20T15:17:23.561Z,24.58
2019-04-20T15:19:59.240Z,24.96
2019-04-20T15:22:31.825Z,24.78
2019-04-20T15:25:03.845Z,25.15
2019-04-20T15:27:46.004Z,25.52
2019-04-20T15:30:18.315Z,25.47
2019-04-20T15:32:49.344Z,25.77
2019-04-20T15:35:21.494Z,24.95
2019-04-20T15:37:53.251Z,24.85
2019-04-20T15:40:24.058Z,25.20
2019-04-20T15:43:09.545Z,25.87
2019-04-20T15:45:31.975Z,25.47
2019-04-20T15:48:06.017Z,25.70
2019-04-20T15:50:38.070Z,25.58
2019-04-20T15:53:09.413Z,25.46
2019-04-20T15:55:42.013Z,25.56
2019-04-20T15:58:16.407Z,25.78
2019-04-20T16:00:47.214Z,26.16
2019-04-20T16:03:23.322Z,26.04
2019-04-20T16:05:58.969Z,26.61
2019-04-20T16:08:38.755Z,27.01
2019-04-20T16:11:11.378Z,26.77
2019-04-20T16:13:50.007Z,27.01
2019-04-20T16:16:19.610Z,27.20
2019-04-20T16:18:51.020Z,27.73
2019-04-20T16:21:29.447Z,28.26
2019-04-20T16:24:01.142Z,28.23
2019-04-20T16:26:37.830Z,27.98
2019-04-20T16:29:08.807Z,28.06
2019-04-20T16:31:40.555Z,27.83
2019-04-20T16:34:14.244Z,27.99
2019-04-20T16:36:46.368Z,28.03
2019-04-20T16:39:18.372Z,27.64
2019-04-20T16:41:50.465Z,27.69
2019-04-20T16:44:23.144Z,27.91
2019-04-20T16:46:56.448Z,28.10
2019-04-20T16:49:27.057Z,29.00
2019-04-20T16:52:00.886Z,29.88
2019-04-20T16:54:32.137Z,29.93
2019-04-20T16:57:04.770Z,29.91
2019-04-20T16:59:46.523Z,30.06
2019-04-20T17:02:14.178Z,30.67
2019-04-20T17:04:45.026Z,30.80
2019-04-20T17:07:20.544Z,30.82
2019-04-20T17:09:55.960Z,31.39
2019-04-20T17:12:27.955Z,31.87
2019-04-20T17:15:01.365Z,32.07
2019-04-20T17:17:35.821Z,32.67
2019-04-20T17:20:11.427Z,32.25
2019-04-20T17:22:50.769Z,32.32
2019-04-20T17:25:27.945Z,32.77
2019-04-20T17:28:17.351Z,32.60
2019-04-20T17:30:59.234Z,32.38
2019-04-20T17:33:50.682Z,33.24
2019-04-20T17:36:18.558Z,32.78
2019-04-20T17:38:51.711Z,33.31
2019-04-20T17:41:43.163Z,33.51
2019-04-20T17:44:09.667Z,33.92
2019-04-20T17:46:44.360Z,34.73
2019-04-20T17:49:14.467Z,35.55
2019-04-20T17:51:57.996Z,35.38
2019-04-20T17:54:25.566Z,35.28
2019-04-20T17:57:00.344Z,35.69
2019-04-20T17:59:39.993Z,36.64
2019-04-20T18:02:51.195Z,36.19
2019-04-20T18:05:46.548Z,36.51
2019-04-20T18:08:15.500Z,36.44
2019-04-20T18:10:41.875Z,36.83
2019-04-20T18:13:07.069Z,35.78
2019-04-20T18:15:48.880Z,37.12
2019-04-20T18:18:39.075Z,37.38
2019-04-20T18:21:03.199Z,37.46
2019-04-20T18:23:39.914Z,37.49
2019-04-20T18:26:28.775Z,37.94
2019-04-20T18:29:03.589Z,38.18
2019-04-20T18:31:17.578Z,37.48
2019-04-20T18:33:50.621Z,37.83
2019-04-20T18:36:30.804Z,37.15
2019-04-20T18:39:02.629Z,36.58
2019-04-20T18:41:38.489Z,37.62
2019-04-20T18:44:04.510Z,37.13
2019-04-20T18:47:00.328Z,37.24
2019-04-20T18:49:24.063Z,38.54
2019-04-20T18:51:39.962Z,38.14
2019-04-20T18:54:22.379Z,36.72
2019-04-20T18:56:56.778Z,36.98
2019-04-20T18:59:31.783Z,36.66
2019-04-20T19:02:12.754Z,35.83
2019-04-20T19:04:39.703Z,36.77
2019-04-20T19:07:11.923Z,36.45
2019-04-20T19:09:45.478Z,36.69
2019-04-20T19:12:16.645Z,35.60
2019-04-20T19:15:28.174Z,35.30
2019-04-20T19:17:58.111Z,35.40
2019-04-20T19:20:26.919Z,37.46
2019-04-20T19:22:58.020Z,38.35
2019-04-20T19:25:36.778Z,38.81
2019-04-20T19:28:07.069Z,37.79
2019-04-20T19:30:46.836Z,37.85
2019-04-20T19:33:30.430Z,37.30
2019-04-20T19:35:53.005Z,37.92
2019-04-20T19:38:25.889Z,36.38
2019-04-20T19:41:00.136Z,36.53
2019-04-20T19:43:33.801Z,36.75
2019-04-20T19:46:44.292Z,37.35
2019-04-20T19:48:48.685Z,36.38
2019-04-20T19:51:28.399Z,36.29
2019-04-20T19:53:59.610Z,35.98
2019-04-20T19:56:31.100Z,37.00
2019-04-20T19:59:05.112Z,36.85
2019-04-20T20:01:22.146Z,35.80
2019-04-20T20:04:02.855Z,35.73
2019-04-20T20:06:42.673Z,36.93
2019-04-20T20:09:09.402Z,36.64
2019-04-20T20:11:42.368Z,37.87
2019-04-20T20:14:12.719Z,36.58
2019-04-20T20:17:06.698Z,35.54
2019-04-20T20:19:37.196Z,35.63
2019-04-20T20:22:07.863Z,36.66
2019-04-20T20:24:27.277Z,36.41
2019-04-20T20:27:04.239Z,35.66
2019-04-20T20:29:38.366Z,35.83
2019-04-20T20:32:17.733Z,35.88
2019-04-20T20:34:44.065Z,36.81
2019-04-20T20:37:18.165Z,37.20
2019-04-20T20:39:59.713Z,37.35
2019-04-20T20:42:29.374Z,36.55
2019-04-20T20:45:07.002Z,36.37
2019-04-20T20:48:00.462Z,36.03
2019-04-20T20:50:21.238Z,36.08
2019-04-20T20:52:49.662Z,36.20
2019-04-20T20:55:24.580Z,36.19
2019-04-20T20:57:53.596Z,36.37
2019-04-20T21:00:24.146Z,35.42
2019-04-20T21:02:53.776Z,35.67
2019-04-20T21:05:19.695Z,35.22
2019-04-20T21:07:51.342Z,35.39
2019-04-20T21:10:30.033Z,35.56
2019-04-20T21:12:58.971Z,35.33
2019-04-20T21:15:28.270Z,35.61
2019-04-20T21:18:20.815Z,35.93
2019-04-20T21:20:52.010Z,36.18
2019-04-20T21:23:20.110Z,36.23
2019-04-20T21:25:43.508Z,36.29
2019-04-20T21:28:10.856Z,35.84
2019-04-20T21:30:45.514Z,36.28
2019-04-20T21:33:15.017Z,35.96
2019-04-20T21:35:48.890Z,36.18
2019-04-20T21:38:19.033Z,35.81
2019-04-20T21:41:02.118Z,35.83
2019-04-20T21:43:29.914Z,35.94
2019-04-20T21:46:01.247Z,36.20
2019-04-20T21:48:49.174Z,35.97
2019-04-20T21:51:16.602Z,36.26
2019-04-20T21:53:35.876Z,36.03
2019-04-20T21:56:08.084Z,36.41
2019-04-20T21:58:44.385Z,36.19
2019-04-20T22:01:22.194Z,36.21
2019-04-20T22:03:45.069Z,35.98
2019-04-20T22:06:16.286Z,36.04
2019-04-20T22:08:54.578Z,35.91
2019-04-20T22:11:23.961Z,36.29
2019-04-20T22:13:54.841Z,36.31
2019-04-20T22:16:34.332Z,37.08
2019-04-20T22:19:14.598Z,35.48
2019-04-20T22:21:48.272Z,36.22
2019-04-20T22:24:13.593Z,37.10
2019-04-20T22:26:50.260Z,36.38
2019-04-20T22:29:08.047Z,37.13
2019-04-20T22:31:40.232Z,36.90
2019-04-20T22:34:15.359Z,36.87
2019-04-20T22:36:48.152Z,37.93
2019-04-20T22:39:18.709Z,38.49
2019-04-20T22:41:56.344Z,37.78
2019-04-20T22:44:26.600Z,36.62
2019-04-20T22:46:56.308Z,36.26
2019-04-20T22:49:47.254Z,36.02
2019-04-20T22:52:18.505Z,36.14
2019-04-20T22:54:48.955Z,35.82
2019-04-20T22:57:21.585Z,36.11
2019-04-20T22:59:50.512Z,36.66
2019-04-20T23:02:13.544Z,36.95
2019-04-20T23:04:48.700Z,36.88
2019-04-20T23:07:20.850Z,37.23
2019-04-20T23:09:54.976Z,37.54
2019-04-20T23:12:26.926Z,38.33
2019-04-20T23:14:56.588Z,38.59
2019-04-20T23:17:36.548Z,39.12
2019-04-20T23:20:02.910Z,39.30
2019-04-20T23:22:36.827Z,39.74
2019-04-20T23:25:05.385Z,39.63
2019-04-20T23:27:37.280Z,39.78
2019-04-20T23:30:20.240Z,39.95
2019-04-20T23:32:44.192Z,39.56
2019-04-20T23:35:18.500Z,40.50
2019-04-20T23:37:48.431Z,39.95
2019-04-20T23:40:19.633Z,38.69
2019-04-20T23:42:55.812Z,39.28
2019-04-20T23:45:42.726Z,39.37
2019-04-20T23:48:18.365Z,39.77
2019-04-20T23:51:05.029Z,39.54
2019-04-20T23:53:39.208Z,39.99
2019-04-20T23:55:54.398Z,39.83
2019-04-20T23:58:26.385Z,40.83
